sensor_id;sensor_type;location;lat;lon;timestamp;P1;durP1;ratioP1;P2;durP2;ratioP2
35022;SDS011;21214;44.912;8.204;2022-10-12T00:00:37;15.65;;;13.15;;
35022;SDS011;21214;44.912;8.204;2022-10-12T00:03:03;15.52;;;13.88;;
35022;SDS011;21214;44.912;8.204;2022-10-12T00:05:29;16.23;;;13.55;;
35022;SDS011;21214;44.912;8.204;2022-10-12T00:07:54;17.92;;;13.55;;
35022;SDS011;21214;44.912;8.204;2022-10-12T00:10:19;15.98;;;13.32;;
35022;SDS011;21214;44.912;8.204;2022-10-12T00:12:45;16.83;;;13.60;;
35022;SDS011;21214;44.912;8.204;2022-10-12T00:15:10;16.58;;;14.02;;
35022;SDS011;21214;44.912;8.204;2022-10-12T00:17:36;17.67;;;14.10;;
35022;SDS011;21214;44.912;8.204;2022-10-12T00:20:02;22.38;;;13.93;;
35022;SDS011;21214;44.912;8.204;2022-10-12T00:22:28;17.35;;;14.25;;
35022;SDS011;21214;44.912;8.204;2022-10-12T00:24:54;18.15;;;13.45;;
35022;SDS011;21214;44.912;8.204;2022-10-12T00:27:19;18.10;;;14.30;;
35022;SDS011;21214;44.912;8.204;2022-10-12T00:29:45;19.00;;;14.73;;
35022;SDS011;21214;44.912;8.204;2022-10-12T00:32:11;17.08;;;15.07;;
35022;SDS011;21214;44.912;8.204;2022-10-12T00:34:36;18.38;;;15.07;;
35022;SDS011;21214;44.912;8.204;2022-10-12T00:37:02;15.10;;;13.43;;
35022;SDS011;21214;44.912;8.204;2022-10-12T00:39:27;16.23;;;13.65;;
35022;SDS011;21214;44.912;8.204;2022-10-12T00:41:52;16.58;;;13.05;;
35022;SDS011;21214;44.912;8.204;2022-10-12T00:44:34;15.00;;;13.50;;
35022;SDS011;21214;44.912;8.204;2022-10-12T00:47:15;17.92;;;13.82;;
35022;SDS011;21214;44.912;8.204;2022-10-12T00:49:48;15.98;;;13.90;;
35022;SDS011;21214;44.912;8.204;2022-10-12T00:52:19;18.63;;;13.93;;
35022;SDS011;21214;44.912;8.204;2022-10-12T00:54:47;18.23;;;14.77;;
35022;SDS011;21214;44.912;8.204;2022-10-12T00:57:16;16.00;;;14.40;;
35022;SDS011;21214;44.912;8.204;2022-10-12T00:59:50;16.63;;;13.32;;
35022;SDS011;21214;44.912;8.204;2022-10-12T01:02:19;19.27;;;14.00;;
35022;SDS011;21214;44.912;8.204;2022-10-12T01:04:48;16.77;;;12.85;;
35022;SDS011;21214;44.912;8.204;2022-10-12T01:07:14;14.63;;;12.20;;
35022;SDS011;21214;44.912;8.204;2022-10-12T01:09:39;17.33;;;13.27;;
35022;SDS011;21214;44.912;8.204;2022-10-12T01:12:06;17.67;;;14.27;;
35022;SDS011;21214;44.912;8.204;2022-10-12T01:14:32;17.35;;;13.50;;
35022;SDS011;21214;44.912;8.204;2022-10-12T01:17:05;15.88;;;13.57;;
35022;SDS011;21214;44.912;8.204;2022-10-12T01:23:04;15.57;;;13.60;;
35022;SDS011;21214;44.912;8.204;2022-10-12T01:31:11;17.75;;;13.93;;
35022;SDS011;21214;44.912;8.204;2022-10-12T01:36:50;14.63;;;13.07;;
35022;SDS011;21214;44.912;8.204;2022-10-12T01:39:49;18.75;;;13.18;;
35022;SDS011;21214;44.912;8.204;2022-10-12T01:42:19;17.20;;;12.50;;
35022;SDS011;21214;44.912;8.204;2022-10-12T01:45:08;17.00;;;12.88;;
35022;SDS011;21214;44.912;8.204;2022-10-12T01:47:37;17.35;;;13.43;;
35022;SDS011;21214;44.912;8.204;2022-10-12T01:50:05;19.00;;;13.57;;
35022;SDS011;21214;44.912;8.204;2022-10-12T01:55:25;18.10;;;12.73;;
35022;SDS011;21214;44.912;8.204;2022-10-12T02:00:57;16.05;;;13.98;;
35022;SDS011;21214;44.912;8.204;2022-10-12T02:03:40;16.50;;;14.38;;
35022;SDS011;21214;44.912;8.204;2022-10-12T02:06:19;15.30;;;13.70;;
35022;SDS011;21214;44.912;8.204;2022-10-12T02:11:22;21.65;;;13.90;;
35022;SDS011;21214;44.912;8.204;2022-10-12T02:13:50;19.30;;;14.38;;
35022;SDS011;21214;44.912;8.204;2022-10-12T02:16:38;20.27;;;13.65;;
35022;SDS011;21214;44.912;8.204;2022-10-12T02:19:08;16.90;;;12.93;;
35022;SDS011;21214;44.912;8.204;2022-10-12T02:21:37;14.82;;;13.18;;
35022;SDS011;21214;44.912;8.204;2022-10-12T02:24:05;16.48;;;13.02;;
35022;SDS011;21214;44.912;8.204;2022-10-12T02:26:33;14.35;;;12.82;;
35022;SDS011;21214;44.912;8.204;2022-10-12T02:29:02;14.13;;;11.75;;
35022;SDS011;21214;44.912;8.204;2022-10-12T02:31:34;18.00;;;13.23;;
35022;SDS011;21214;44.912;8.204;2022-10-12T02:36:43;20.48;;;12.68;;
35022;SDS011;21214;44.912;8.204;2022-10-12T02:39:17;17.20;;;13.40;;
35022;SDS011;21214;44.912;8.204;2022-10-12T02:41:51;14.77;;;13.05;;
35022;SDS011;21214;44.912;8.204;2022-10-12T02:44:25;14.23;;;12.70;;
35022;SDS011;21214;44.912;8.204;2022-10-12T02:46:54;22.25;;;13.85;;
35022;SDS011;21214;44.912;8.204;2022-10-12T02:49:22;17.40;;;12.90;;
35022;SDS011;21214;44.912;8.204;2022-10-12T02:51:51;16.45;;;13.15;;
35022;SDS011;21214;44.912;8.204;2022-10-12T02:54:18;14.43;;;12.88;;
35022;SDS011;21214;44.912;8.204;2022-10-12T02:56:45;14.68;;;13.18;;
35022;SDS011;21214;44.912;8.204;2022-10-12T02:59:14;15.05;;;12.85;;
35022;SDS011;21214;44.912;8.204;2022-10-12T03:01:41;18.42;;;14.13;;
35022;SDS011;21214;44.912;8.204;2022-10-12T03:04:06;15.80;;;12.38;;
35022;SDS011;21214;44.912;8.204;2022-10-12T03:06:32;16.15;;;13.38;;
35022;SDS011;21214;44.912;8.204;2022-10-12T03:08:58;21.55;;;13.63;;
35022;SDS011;21214;44.912;8.204;2022-10-12T03:11:23;13.90;;;11.88;;
35022;SDS011;21214;44.912;8.204;2022-10-12T03:13:52;17.35;;;13.23;;
35022;SDS011;21214;44.912;8.204;2022-10-12T03:16:19;17.45;;;12.55;;
35022;SDS011;21214;44.912;8.204;2022-10-12T03:18:44;16.05;;;13.15;;
35022;SDS011;21214;44.912;8.204;2022-10-12T03:21:10;15.77;;;14.02;;
35022;SDS011;21214;44.912;8.204;2022-10-12T03:23:35;15.13;;;13.55;;
35022;SDS011;21214;44.912;8.204;2022-10-12T03:26:01;18.85;;;13.77;;
35022;SDS011;21214;44.912;8.204;2022-10-12T03:28:27;16.52;;;13.48;;
35022;SDS011;21214;44.912;8.204;2022-10-12T03:30:53;18.38;;;14.77;;
35022;SDS011;21214;44.912;8.204;2022-10-12T03:33:19;17.40;;;15.40;;
35022;SDS011;21214;44.912;8.204;2022-10-12T03:35:45;18.50;;;14.98;;
35022;SDS011;21214;44.912;8.204;2022-10-12T03:38:11;17.17;;;14.52;;
35022;SDS011;21214;44.912;8.204;2022-10-12T03:40:38;16.55;;;13.98;;
35022;SDS011;21214;44.912;8.204;2022-10-12T03:43:03;19.42;;;14.80;;
35022;SDS011;21214;44.912;8.204;2022-10-12T03:45:28;18.88;;;13.85;;
35022;SDS011;21214;44.912;8.204;2022-10-12T03:47:54;18.67;;;13.35;;
35022;SDS011;21214;44.912;8.204;2022-10-12T03:50:20;14.07;;;12.73;;
35022;SDS011;21214;44.912;8.204;2022-10-12T03:52:46;15.38;;;13.15;;
35022;SDS011;21214;44.912;8.204;2022-10-12T03:55:11;16.05;;;12.93;;
35022;SDS011;21214;44.912;8.204;2022-10-12T03:57:37;16.48;;;12.73;;
35022;SDS011;21214;44.912;8.204;2022-10-12T04:00:03;17.73;;;12.57;;
35022;SDS011;21214;44.912;8.204;2022-10-12T04:02:36;16.33;;;11.95;;
35022;SDS011;21214;44.912;8.204;2022-10-12T04:05:02;16.60;;;12.73;;
35022;SDS011;21214;44.912;8.204;2022-10-12T04:07:27;14.43;;;12.95;;
35022;SDS011;21214;44.912;8.204;2022-10-12T04:09:53;16.33;;;13.32;;
35022;SDS011;21214;44.912;8.204;2022-10-12T04:12:18;14.45;;;12.25;;
35022;SDS011;21214;44.912;8.204;2022-10-12T04:14:44;19.80;;;12.70;;
35022;SDS011;21214;44.912;8.204;2022-10-12T04:17:09;16.38;;;12.55;;
35022;SDS011;21214;44.912;8.204;2022-10-12T04:19:35;15.30;;;11.88;;
35022;SDS011;21214;44.912;8.204;2022-10-12T04:22:01;15.05;;;13.48;;
35022;SDS011;21214;44.912;8.204;2022-10-12T04:24:26;14.38;;;12.80;;
35022;SDS011;21214;44.912;8.204;2022-10-12T04:26:52;16.63;;;13.30;;
35022;SDS011;21214;44.912;8.204;2022-10-12T04:29:17;16.15;;;14.07;;
35022;SDS011;21214;44.912;8.204;2022-10-12T04:31:42;20.10;;;13.93;;
35022;SDS011;21214;44.912;8.204;2022-10-12T04:34:08;19.77;;;15.00;;
35022;SDS011;21214;44.912;8.204;2022-10-12T04:36:34;17.73;;;14.73;;
35022;SDS011;21214;44.912;8.204;2022-10-12T04:38:59;18.75;;;14.57;;
35022;SDS011;21214;44.912;8.204;2022-10-12T04:41:25;18.35;;;15.18;;
35022;SDS011;21214;44.912;8.204;2022-10-12T04:43:53;16.70;;;14.90;;
35022;SDS011;21214;44.912;8.204;2022-10-12T04:46:19;20.13;;;15.75;;
35022;SDS011;21214;44.912;8.204;2022-10-12T04:48:45;17.52;;;15.60;;
35022;SDS011;21214;44.912;8.204;2022-10-12T04:51:10;22.50;;;15.90;;
35022;SDS011;21214;44.912;8.204;2022-10-12T04:53:36;22.50;;;16.27;;
35022;SDS011;21214;44.912;8.204;2022-10-12T04:56:02;25.50;;;17.08;;
35022;SDS011;21214;44.912;8.204;2022-10-12T04:58:28;21.20;;;17.67;;
35022;SDS011;21214;44.912;8.204;2022-10-12T05:00:54;21.88;;;16.65;;
35022;SDS011;21214;44.912;8.204;2022-10-12T05:03:19;20.65;;;16.80;;
35022;SDS011;21214;44.912;8.204;2022-10-12T05:05:45;23.52;;;17.17;;
35022;SDS011;21214;44.912;8.204;2022-10-12T05:08:10;25.17;;;18.45;;
35022;SDS011;21214;44.912;8.204;2022-10-12T05:10:37;22.92;;;18.27;;
35022;SDS011;21214;44.912;8.204;2022-10-12T05:13:03;25.92;;;18.40;;
35022;SDS011;21214;44.912;8.204;2022-10-12T05:15:28;27.50;;;19.50;;
35022;SDS011;21214;44.912;8.204;2022-10-12T05:17:54;26.13;;;19.33;;
35022;SDS011;21214;44.912;8.204;2022-10-12T05:20:20;29.33;;;20.50;;
35022;SDS011;21214;44.912;8.204;2022-10-12T05:22:46;29.85;;;22.02;;
35022;SDS011;21214;44.912;8.204;2022-10-12T05:25:11;28.58;;;21.02;;
35022;SDS011;21214;44.912;8.204;2022-10-12T05:27:37;28.85;;;22.50;;
35022;SDS011;21214;44.912;8.204;2022-10-12T05:30:03;30.90;;;22.52;;
35022;SDS011;21214;44.912;8.204;2022-10-12T05:32:29;31.60;;;21.73;;
35022;SDS011;21214;44.912;8.204;2022-10-12T05:34:54;29.60;;;21.48;;
35022;SDS011;21214;44.912;8.204;2022-10-12T05:37:20;28.42;;;22.55;;
35022;SDS011;21214;44.912;8.204;2022-10-12T05:39:45;34.63;;;22.67;;
35022;SDS011;21214;44.912;8.204;2022-10-12T05:42:10;26.17;;;22.52;;
35022;SDS011;21214;44.912;8.204;2022-10-12T05:44:36;32.55;;;22.75;;
35022;SDS011;21214;44.912;8.204;2022-10-12T05:47:03;33.28;;;22.05;;
35022;SDS011;21214;44.912;8.204;2022-10-12T05:49:29;29.33;;;22.23;;
35022;SDS011;21214;44.912;8.204;2022-10-12T05:51:55;34.85;;;22.60;;
35022;SDS011;21214;44.912;8.204;2022-10-12T05:54:20;31.15;;;23.02;;
35022;SDS011;21214;44.912;8.204;2022-10-12T05:56:46;31.83;;;23.05;;
35022;SDS011;21214;44.912;8.204;2022-10-12T05:59:12;33.97;;;23.65;;
35022;SDS011;21214;44.912;8.204;2022-10-12T06:01:37;33.90;;;22.08;;
35022;SDS011;21214;44.912;8.204;2022-10-12T06:04:03;30.13;;;22.50;;
35022;SDS011;21214;44.912;8.204;2022-10-12T06:06:29;31.42;;;22.48;;
35022;SDS011;21214;44.912;8.204;2022-10-12T06:08:54;33.05;;;22.70;;
35022;SDS011;21214;44.912;8.204;2022-10-12T06:11:19;33.13;;;21.80;;
35022;SDS011;21214;44.912;8.204;2022-10-12T06:13:45;26.77;;;19.92;;
35022;SDS011;21214;44.912;8.204;2022-10-12T06:16:11;26.42;;;20.83;;
35022;SDS011;21214;44.912;8.204;2022-10-12T06:18:36;23.75;;;19.85;;
35022;SDS011;21214;44.912;8.204;2022-10-12T06:21:01;22.38;;;18.73;;
35022;SDS011;21214;44.912;8.204;2022-10-12T06:23:27;19.92;;;17.83;;
35022;SDS011;21214;44.912;8.204;2022-10-12T06:25:53;19.30;;;17.23;;
35022;SDS011;21214;44.912;8.204;2022-10-12T06:28:19;18.75;;;16.63;;
35022;SDS011;21214;44.912;8.204;2022-10-12T06:30:45;22.77;;;16.38;;
35022;SDS011;21214;44.912;8.204;2022-10-12T06:33:17;19.15;;;16.60;;
35022;SDS011;21214;44.912;8.204;2022-10-12T06:35:42;20.40;;;16.80;;
35022;SDS011;21214;44.912;8.204;2022-10-12T06:38:08;18.23;;;16.30;;
35022;SDS011;21214;44.912;8.204;2022-10-12T06:40:33;22.15;;;17.33;;
35022;SDS011;21214;44.912;8.204;2022-10-12T06:42:59;19.80;;;17.63;;
35022;SDS011;21214;44.912;8.204;2022-10-12T06:45:27;19.60;;;17.60;;
35022;SDS011;21214;44.912;8.204;2022-10-12T06:47:53;20.98;;;17.85;;
35022;SDS011;21214;44.912;8.204;2022-10-12T06:50:19;22.02;;;17.77;;
35022;SDS011;21214;44.912;8.204;2022-10-12T06:52:45;21.48;;;19.27;;
35022;SDS011;21214;44.912;8.204;2022-10-12T06:55:11;21.40;;;19.20;;
35022;SDS011;21214;44.912;8.204;2022-10-12T06:57:36;20.67;;;18.55;;
35022;SDS011;21214;44.912;8.204;2022-10-12T07:00:03;22.80;;;19.63;;
35022;SDS011;21214;44.912;8.204;2022-10-12T07:02:29;22.15;;;19.77;;
35022;SDS011;21214;44.912;8.204;2022-10-12T07:04:55;22.75;;;20.38;;
35022;SDS011;21214;44.912;8.204;2022-10-12T07:07:20;22.33;;;19.88;;
35022;SDS011;21214;44.912;8.204;2022-10-12T07:09:46;25.83;;;20.30;;
35022;SDS011;21214;44.912;8.204;2022-10-12T07:12:11;22.92;;;20.45;;
35022;SDS011;21214;44.912;8.204;2022-10-12T07:14:37;22.45;;;19.75;;
35022;SDS011;21214;44.912;8.204;2022-10-12T07:17:02;20.35;;;18.10;;
35022;SDS011;21214;44.912;8.204;2022-10-12T07:19:27;20.52;;;18.33;;
35022;SDS011;21214;44.912;8.204;2022-10-12T07:21:53;20.42;;;17.73;;
35022;SDS011;21214;44.912;8.204;2022-10-12T07:24:18;21.20;;;17.63;;
35022;SDS011;21214;44.912;8.204;2022-10-12T07:26:44;21.42;;;17.90;;
35022;SDS011;21214;44.912;8.204;2022-10-12T07:29:09;19.77;;;17.80;;
35022;SDS011;21214;44.912;8.204;2022-10-12T07:31:35;20.95;;;18.10;;
35022;SDS011;21214;44.912;8.204;2022-10-12T07:34:01;22.17;;;17.42;;
35022;SDS011;21214;44.912;8.204;2022-10-12T07:36:26;21.73;;;18.00;;
35022;SDS011;21214;44.912;8.204;2022-10-12T07:38:52;22.17;;;19.48;;
35022;SDS011;21214;44.912;8.204;2022-10-12T07:41:17;21.75;;;19.25;;
35022;SDS011;21214;44.912;8.204;2022-10-12T07:43:43;25.30;;;18.95;;
35022;SDS011;21214;44.912;8.204;2022-10-12T07:46:09;22.30;;;19.85;;
35022;SDS011;21214;44.912;8.204;2022-10-12T07:48:35;20.83;;;18.63;;
35022;SDS011;21214;44.912;8.204;2022-10-12T07:51:05;24.92;;;18.58;;
35022;SDS011;21214;44.912;8.204;2022-10-12T07:53:33;20.00;;;17.90;;
35022;SDS011;21214;44.912;8.204;2022-10-12T07:55:59;22.05;;;18.80;;
35022;SDS011;21214;44.912;8.204;2022-10-12T07:58:25;24.95;;;18.67;;
35022;SDS011;21214;44.912;8.204;2022-10-12T08:00:51;24.48;;;18.10;;
35022;SDS011;21214;44.912;8.204;2022-10-12T08:03:16;24.27;;;19.38;;
35022;SDS011;21214;44.912;8.204;2022-10-12T08:05:42;24.48;;;18.90;;
35022;SDS011;21214;44.912;8.204;2022-10-12T08:08:07;25.42;;;18.67;;
35022;SDS011;21214;44.912;8.204;2022-10-12T08:10:33;27.13;;;20.48;;
35022;SDS011;21214;44.912;8.204;2022-10-12T08:13:00;24.17;;;19.27;;
35022;SDS011;21214;44.912;8.204;2022-10-12T08:15:25;23.05;;;19.20;;
35022;SDS011;21214;44.912;8.204;2022-10-12T08:17:51;25.17;;;19.88;;
35022;SDS011;21214;44.912;8.204;2022-10-12T08:20:17;24.13;;;19.90;;
35022;SDS011;21214;44.912;8.204;2022-10-12T08:22:42;22.65;;;19.23;;
35022;SDS011;21214;44.912;8.204;2022-10-12T08:25:08;22.20;;;18.33;;
35022;SDS011;21214;44.912;8.204;2022-10-12T08:27:33;23.38;;;18.10;;
35022;SDS011;21214;44.912;8.204;2022-10-12T08:29:59;20.77;;;18.35;;
35022;SDS011;21214;44.912;8.204;2022-10-12T08:32:25;20.60;;;16.35;;
35022;SDS011;21214;44.912;8.204;2022-10-12T08:34:50;18.75;;;16.05;;
35022;SDS011;21214;44.912;8.204;2022-10-12T08:37:16;23.58;;;16.55;;
35022;SDS011;21214;44.912;8.204;2022-10-12T08:39:41;20.20;;;17.75;;
35022;SDS011;21214;44.912;8.204;2022-10-12T08:50:20;18.17;;;16.27;;
35022;SDS011;21214;44.912;8.204;2022-10-12T08:52:53;19.38;;;16.45;;
35022;SDS011;21214;44.912;8.204;2022-10-12T08:55:34;20.23;;;17.38;;
35022;SDS011;21214;44.912;8.204;2022-10-12T08:58:07;24.42;;;18.80;;
35022;SDS011;21214;44.912;8.204;2022-10-12T09:00:46;22.45;;;17.13;;
35022;SDS011;21214;44.912;8.204;2022-10-12T09:06:21;27.98;;;18.88;;
35022;SDS011;21214;44.912;8.204;2022-10-12T09:08:58;22.38;;;18.50;;
35022;SDS011;21214;44.912;8.204;2022-10-12T09:11:40;21.13;;;18.40;;
35022;SDS011;21214;44.912;8.204;2022-10-12T09:14:29;23.48;;;18.13;;
35022;SDS011;21214;44.912;8.204;2022-10-12T09:16:56;24.58;;;18.27;;
35022;SDS011;21214;44.912;8.204;2022-10-12T09:19:33;26.08;;;19.33;;
35022;SDS011;21214;44.912;8.204;2022-10-12T09:22:02;29.85;;;19.25;;
35022;SDS011;21214;44.912;8.204;2022-10-12T09:24:33;23.10;;;19.35;;
35022;SDS011;21214;44.912;8.204;2022-10-12T09:27:02;25.67;;;19.80;;
35022;SDS011;21214;44.912;8.204;2022-10-12T09:34:57;26.38;;;19.85;;
35022;SDS011;21214;44.912;8.204;2022-10-12T09:37:24;26.75;;;20.70;;
35022;SDS011;21214;44.912;8.204;2022-10-12T09:39:54;26.15;;;20.13;;
35022;SDS011;21214;44.912;8.204;2022-10-12T09:42:20;28.13;;;21.25;;
35022;SDS011;21214;44.912;8.204;2022-10-12T09:47:25;30.52;;;22.75;;
35022;SDS011;21214;44.912;8.204;2022-10-12T09:49:56;31.33;;;22.52;;
35022;SDS011;21214;44.912;8.204;2022-10-12T09:54:59;29.23;;;22.50;;
35022;SDS011;21214;44.912;8.204;2022-10-12T09:57:38;27.73;;;22.08;;
35022;SDS011;21214;44.912;8.204;2022-10-12T10:00:06;33.78;;;24.58;;
35022;SDS011;21214;44.912;8.204;2022-10-12T10:02:51;33.25;;;23.00;;
35022;SDS011;21214;44.912;8.204;2022-10-12T10:05:36;32.53;;;23.90;;
35022;SDS011;21214;44.912;8.204;2022-10-12T10:08:17;30.88;;;23.45;;
35022;SDS011;21214;44.912;8.204;2022-10-12T10:10:51;31.17;;;24.48;;
35022;SDS011;21214;44.912;8.204;2022-10-12T10:13:18;35.47;;;23.70;;
35022;SDS011;21214;44.912;8.204;2022-10-12T10:15:47;34.15;;;24.77;;
35022;SDS011;21214;44.912;8.204;2022-10-12T10:18:26;28.98;;;24.30;;
35022;SDS011;21214;44.912;8.204;2022-10-12T10:20:58;33.53;;;25.60;;
35022;SDS011;21214;44.912;8.204;2022-10-12T10:23:28;30.90;;;25.15;;
35022;SDS011;21214;44.912;8.204;2022-10-12T10:26:04;31.92;;;25.02;;
35022;SDS011;21214;44.912;8.204;2022-10-12T10:28:32;32.70;;;24.40;;
35022;SDS011;21214;44.912;8.204;2022-10-12T10:31:00;33.47;;;24.80;;
35022;SDS011;21214;44.912;8.204;2022-10-12T10:33:31;33.92;;;25.80;;
35022;SDS011;21214;44.912;8.204;2022-10-12T10:38:54;33.42;;;25.80;;
35022;SDS011;21214;44.912;8.204;2022-10-12T10:41:23;34.42;;;26.33;;
35022;SDS011;21214;44.912;8.204;2022-10-12T10:43:52;37.85;;;28.05;;
35022;SDS011;21214;44.912;8.204;2022-10-12T10:46:22;35.90;;;27.65;;
35022;SDS011;21214;44.912;8.204;2022-10-12T10:48:51;33.53;;;26.17;;
35022;SDS011;21214;44.912;8.204;2022-10-12T10:51:36;38.42;;;27.77;;
35022;SDS011;21214;44.912;8.204;2022-10-12T10:54:35;37.97;;;27.38;;
35022;SDS011;21214;44.912;8.204;2022-10-12T10:59:55;34.78;;;26.30;;
35022;SDS011;21214;44.912;8.204;2022-10-12T11:05:13;36.42;;;26.98;;
35022;SDS011;21214;44.912;8.204;2022-10-12T11:07:40;37.90;;;26.25;;
35022;SDS011;21214;44.912;8.204;2022-10-12T11:10:16;34.67;;;25.65;;
35022;SDS011;21214;44.912;8.204;2022-10-12T11:12:47;33.17;;;25.23;;
35022;SDS011;21214;44.912;8.204;2022-10-12T11:17:49;35.53;;;25.45;;
35022;SDS011;21214;44.912;8.204;2022-10-12T11:23:13;36.65;;;24.55;;
35022;SDS011;21214;44.912;8.204;2022-10-12T11:26:07;37.35;;;25.55;;
35022;SDS011;21214;44.912;8.204;2022-10-12T11:28:51;32.90;;;23.67;;
35022;SDS011;21214;44.912;8.204;2022-10-12T11:31:33;37.08;;;25.30;;
35022;SDS011;21214;44.912;8.204;2022-10-12T11:34:03;37.83;;;25.90;;
35022;SDS011;21214;44.912;8.204;2022-10-12T11:36:31;34.05;;;25.27;;
35022;SDS011;21214;44.912;8.204;2022-10-12T11:39:00;32.88;;;25.02;;
35022;SDS011;21214;44.912;8.204;2022-10-12T11:44:05;35.55;;;24.90;;
35022;SDS011;21214;44.912;8.204;2022-10-12T11:46:48;35.42;;;25.23;;
35022;SDS011;21214;44.912;8.204;2022-10-12T11:49:28;36.30;;;25.83;;
35022;SDS011;21214;44.912;8.204;2022-10-12T11:52:00;33.83;;;25.30;;
35022;SDS011;21214;44.912;8.204;2022-10-12T11:54:38;30.70;;;24.08;;
35022;SDS011;21214;44.912;8.204;2022-10-12T11:57:15;39.58;;;25.92;;
35022;SDS011;21214;44.912;8.204;2022-10-12T11:59:45;34.67;;;26.05;;
35022;SDS011;21214;44.912;8.204;2022-10-12T12:05:19;38.28;;;26.77;;
35022;SDS011;21214;44.912;8.204;2022-10-12T12:15:36;33.83;;;26.10;;
35022;SDS011;21214;44.912;8.204;2022-10-12T12:18:06;34.42;;;26.17;;
35022;SDS011;21214;44.912;8.204;2022-10-12T12:26:03;33.70;;;25.35;;
35022;SDS011;21214;44.912;8.204;2022-10-12T12:28:29;32.88;;;24.92;;
35022;SDS011;21214;44.912;8.204;2022-10-12T12:30:56;38.80;;;26.45;;
35022;SDS011;21214;44.912;8.204;2022-10-12T12:33:26;38.38;;;26.27;;
35022;SDS011;21214;44.912;8.204;2022-10-12T12:36:03;39.92;;;27.08;;
35022;SDS011;21214;44.912;8.204;2022-10-12T12:41:04;35.58;;;26.20;;
35022;SDS011;21214;44.912;8.204;2022-10-12T12:43:34;38.92;;;27.00;;
35022;SDS011;21214;44.912;8.204;2022-10-12T12:46:06;39.30;;;25.17;;
35022;SDS011;21214;44.912;8.204;2022-10-12T12:54:10;35.15;;;25.73;;
35022;SDS011;21214;44.912;8.204;2022-10-12T13:16:54;38.55;;;26.73;;
35022;SDS011;21214;44.912;8.204;2022-10-12T13:19:31;36.42;;;27.20;;
35022;SDS011;21214;44.912;8.204;2022-10-12T13:22:01;35.92;;;27.48;;
35022;SDS011;21214;44.912;8.204;2022-10-12T13:27:11;34.65;;;25.60;;
35022;SDS011;21214;44.912;8.204;2022-10-12T13:29:45;33.97;;;25.30;;
35022;SDS011;21214;44.912;8.204;2022-10-12T13:33:03;36.45;;;26.13;;
35022;SDS011;21214;44.912;8.204;2022-10-12T13:38:02;41.70;;;28.02;;
35022;SDS011;21214;44.912;8.204;2022-10-12T13:43:41;38.88;;;27.35;;
35022;SDS011;21214;44.912;8.204;2022-10-12T13:46:10;35.13;;;25.75;;
35022;SDS011;21214;44.912;8.204;2022-10-12T13:48:37;31.85;;;25.60;;
35022;SDS011;21214;44.912;8.204;2022-10-12T13:51:19;34.70;;;25.88;;
35022;SDS011;21214;44.912;8.204;2022-10-12T13:53:47;33.80;;;25.65;;
35022;SDS011;21214;44.912;8.204;2022-10-12T13:56:14;33.53;;;26.67;;
35022;SDS011;21214;44.912;8.204;2022-10-12T13:58:43;35.33;;;26.77;;
35022;SDS011;21214;44.912;8.204;2022-10-12T14:01:09;33.53;;;25.63;;
35022;SDS011;21214;44.912;8.204;2022-10-12T14:03:38;33.10;;;25.67;;
35022;SDS011;21214;44.912;8.204;2022-10-12T14:08:57;40.78;;;28.80;;
35022;SDS011;21214;44.912;8.204;2022-10-12T14:11:30;36.83;;;27.10;;
35022;SDS011;21214;44.912;8.204;2022-10-12T14:13:56;36.92;;;27.88;;
35022;SDS011;21214;44.912;8.204;2022-10-12T14:16:22;38.28;;;28.10;;
35022;SDS011;21214;44.912;8.204;2022-10-12T14:18:47;39.45;;;29.25;;
35022;SDS011;21214;44.912;8.204;2022-10-12T14:21:19;39.90;;;29.20;;
35022;SDS011;21214;44.912;8.204;2022-10-12T14:23:57;36.90;;;27.33;;
35022;SDS011;21214;44.912;8.204;2022-10-12T14:26:32;39.47;;;28.55;;
35022;SDS011;21214;44.912;8.204;2022-10-12T14:34:47;38.58;;;28.90;;
35022;SDS011;21214;44.912;8.204;2022-10-12T14:39:39;39.53;;;28.73;;
35022;SDS011;21214;44.912;8.204;2022-10-12T14:44:44;40.92;;;29.65;;
35022;SDS011;21214;44.912;8.204;2022-10-12T14:49:47;41.88;;;28.55;;
35022;SDS011;21214;44.912;8.204;2022-10-12T14:54:53;40.67;;;28.15;;
35022;SDS011;21214;44.912;8.204;2022-10-12T14:57:20;39.80;;;29.92;;
35022;SDS011;21214;44.912;8.204;2022-10-12T14:59:47;39.53;;;30.58;;
35022;SDS011;21214;44.912;8.204;2022-10-12T15:02:18;43.00;;;29.88;;
35022;SDS011;21214;44.912;8.204;2022-10-12T15:04:46;37.58;;;29.35;;
35022;SDS011;21214;44.912;8.204;2022-10-12T15:07:13;43.15;;;30.92;;
35022;SDS011;21214;44.912;8.204;2022-10-12T15:09:42;39.17;;;28.87;;
35022;SDS011;21214;44.912;8.204;2022-10-12T15:12:09;42.53;;;30.38;;
35022;SDS011;21214;44.912;8.204;2022-10-12T15:14:37;38.97;;;29.45;;
35022;SDS011;21214;44.912;8.204;2022-10-12T15:17:02;39.95;;;28.40;;
35022;SDS011;21214;44.912;8.204;2022-10-12T15:19:28;41.10;;;29.38;;
35022;SDS011;21214;44.912;8.204;2022-10-12T15:21:53;38.83;;;28.35;;
35022;SDS011;21214;44.912;8.204;2022-10-12T15:24:19;42.40;;;29.45;;
35022;SDS011;21214;44.912;8.204;2022-10-12T15:26:44;46.28;;;29.92;;
35022;SDS011;21214;44.912;8.204;2022-10-12T15:29:10;38.80;;;27.38;;
35022;SDS011;21214;44.912;8.204;2022-10-12T15:31:35;44.65;;;30.27;;
35022;SDS011;21214;44.912;8.204;2022-10-12T15:34:08;41.67;;;29.35;;
35022;SDS011;21214;44.912;8.204;2022-10-12T15:36:36;39.83;;;29.35;;
35022;SDS011;21214;44.912;8.204;2022-10-12T15:39:01;37.33;;;28.20;;
35022;SDS011;21214;44.912;8.204;2022-10-12T15:41:27;41.50;;;29.10;;
35022;SDS011;21214;44.912;8.204;2022-10-12T15:43:52;42.13;;;30.05;;
35022;SDS011;21214;44.912;8.204;2022-10-12T15:46:18;47.15;;;30.15;;
35022;SDS011;21214;44.912;8.204;2022-10-12T15:48:44;41.55;;;29.70;;
35022;SDS011;21214;44.912;8.204;2022-10-12T15:51:16;38.38;;;28.38;;
35022;SDS011;21214;44.912;8.204;2022-10-12T15:53:43;43.50;;;29.85;;
35022;SDS011;21214;44.912;8.204;2022-10-12T15:56:12;46.83;;;31.75;;
35022;SDS011;21214;44.912;8.204;2022-10-12T15:58:39;42.53;;;30.05;;
35022;SDS011;21214;44.912;8.204;2022-10-12T16:01:05;42.53;;;29.38;;
35022;SDS011;21214;44.912;8.204;2022-10-12T16:03:30;40.70;;;28.08;;
35022;SDS011;21214;44.912;8.204;2022-10-12T16:05:57;40.90;;;29.13;;
35022;SDS011;21214;44.912;8.204;2022-10-12T16:08:23;43.10;;;29.95;;
35022;SDS011;21214;44.912;8.204;2022-10-12T16:10:48;40.00;;;28.42;;
35022;SDS011;21214;44.912;8.204;2022-10-12T16:13:18;42.92;;;29.80;;
35022;SDS011;21214;44.912;8.204;2022-10-12T16:15:43;39.15;;;28.20;;
35022;SDS011;21214;44.912;8.204;2022-10-12T16:18:09;40.95;;;29.92;;
35022;SDS011;21214;44.912;8.204;2022-10-12T16:20:36;42.65;;;30.90;;
35022;SDS011;21214;44.912;8.204;2022-10-12T16:23:03;42.53;;;30.48;;
35022;SDS011;21214;44.912;8.204;2022-10-12T16:25:31;40.47;;;30.35;;
35022;SDS011;21214;44.912;8.204;2022-10-12T16:27:56;40.90;;;29.20;;
35022;SDS011;21214;44.912;8.204;2022-10-12T16:30:23;40.47;;;30.13;;
35022;SDS011;21214;44.912;8.204;2022-10-12T16:32:49;41.28;;;30.02;;
35022;SDS011;21214;44.912;8.204;2022-10-12T16:35:15;42.50;;;30.98;;
35022;SDS011;21214;44.912;8.204;2022-10-12T16:37:41;45.92;;;30.88;;
35022;SDS011;21214;44.912;8.204;2022-10-12T16:40:06;44.88;;;30.13;;
35022;SDS011;21214;44.912;8.204;2022-10-12T16:42:33;44.72;;;29.75;;